createdAt,value
2019-04-04T00:03:45.745Z,10.47
2019-04-04T00:08:47.436Z,11.07
2019-04-04T00:13:48.998Z,11.00
2019-04-04T00:18:50.656Z,10.70
2019-04-04T00:23:52.350Z,11.67
2019-04-04T00:28:53.902Z,10.90
2019-04-04T00:33:55.907Z,11.60
2019-04-04T00:38:58.291Z,11.13
2019-04-04T00:43:59.972Z,12.03
2019-04-04T00:49:04.552Z,11.73
2019-04-04T00:54:05.268Z,11.57
2019-04-04T00:59:06.812Z,12.30
2019-04-04T01:04:08.496Z,12.73
2019-04-04T01:09:13.111Z,13.10
2019-04-04T01:14:13.559Z,14.77
2019-04-04T01:19:15.233Z,13.03
2019-04-04T01:24:16.921Z,10.30
2019-04-04T01:29:18.478Z,10.27
2019-04-04T01:34:20.939Z,10.23
2019-04-04T01:39:23.072Z,8.73
2019-04-04T01:44:24.675Z,7.13
2019-04-04T01:49:26.254Z,7.03
2019-04-04T01:54:27.812Z,5.37
2019-04-04T01:59:29.369Z,5.43
2019-04-04T02:04:30.923Z,5.50
2019-04-04T02:09:34.552Z,4.60
2019-04-04T02:14:36.226Z,4.70
2019-04-04T02:19:37.915Z,4.53
2019-04-04T02:24:39.457Z,4.53
2019-04-04T02:29:41.860Z,4.10
2019-04-04T02:34:44.018Z,4.60
2019-04-04T02:39:45.563Z,4.50
2019-04-04T02:44:47.226Z,4.53
2019-04-04T02:49:48.755Z,4.60
2019-04-04T02:54:50.292Z,4.40
2019-04-04T02:59:53.435Z,4.93
2019-04-04T03:04:55.344Z,4.63
2019-04-04T03:09:56.995Z,4.70
2019-04-04T03:14:58.663Z,4.77
2019-04-04T03:20:00.323Z,5.50
2019-04-04T03:25:01.980Z,5.53
2019-04-04T03:30:04.409Z,6.27
2019-04-04T03:35:06.312Z,6.73
2019-04-04T03:40:08.566Z,14.83
2019-04-04T03:45:10.315Z,7.73
2019-04-04T03:50:11.947Z,7.80
2019-04-04T03:55:13.557Z,7.80
2019-04-04T04:00:24.704Z,8.43
2019-04-04T04:05:34.217Z,9.20
2019-04-04T04:10:33.397Z,9.77
2019-04-04T04:15:35.356Z,10.23
2019-04-04T04:20:37.921Z,11.93
2019-04-04T04:25:42.283Z,11.90
2019-04-04T04:30:43.922Z,11.53
2019-04-04T04:35:45.491Z,10.30
2019-04-04T04:40:48.036Z,8.63
2019-04-04T04:45:49.780Z,6.43
2019-04-04T04:50:51.347Z,8.20
2019-04-04T04:55:52.917Z,9.37
2019-04-04T05:00:54.545Z,10.40
2019-04-04T05:05:56.080Z,13.90
2019-04-04T05:10:57.638Z,12.33
2019-04-04T05:15:59.184Z,13.10
2019-04-04T05:21:01.957Z,12.43
2019-04-04T05:26:04.157Z,14.13
2019-04-04T05:31:05.671Z,12.97
2019-04-04T05:36:07.336Z,12.87
2019-04-04T05:41:08.873Z,12.97
2019-04-04T05:46:10.520Z,13.10
2019-04-04T05:51:14.965Z,11.53
2019-04-04T05:56:15.869Z,11.77
2019-04-04T06:01:17.993Z,11.87
2019-04-04T06:06:19.520Z,12.73
2019-04-04T06:11:21.758Z,12.03
2019-04-04T06:16:23.372Z,13.03
2019-04-04T06:21:24.866Z,13.20
2019-04-04T06:26:26.544Z,13.33
2019-04-04T06:31:30.823Z,12.47
2019-04-04T06:36:31.747Z,12.77
2019-04-04T06:41:33.267Z,12.60
2019-04-04T06:46:34.792Z,13.27
2019-04-04T06:51:36.328Z,12.63
2019-04-04T06:56:37.848Z,12.73
2019-04-04T07:01:39.389Z,12.33
2019-04-04T07:06:42.043Z,13.00
2019-04-04T07:11:43.987Z,17.83
2019-04-04T07:16:45.590Z,13.67
2019-04-04T07:21:47.179Z,14.03
2019-04-04T07:26:48.709Z,13.63
2019-04-04T07:31:50.258Z,13.20
2019-04-04T07:36:51.926Z,13.77
2019-04-04T07:41:53.517Z,14.70
2019-04-04T07:46:55.045Z,14.80
2019-04-04T07:51:56.572Z,14.97
2019-04-04T07:56:58.185Z,14.27
2019-04-04T08:01:59.726Z,14.80
2019-04-04T08:07:01.363Z,14.83
2019-04-04T08:12:03.031Z,13.97
2019-04-04T08:17:04.559Z,15.03
2019-04-04T08:22:06.174Z,15.13
2019-04-04T08:27:07.852Z,14.97
2019-04-04T08:32:09.399Z,14.90
2019-04-04T08:37:10.950Z,14.53
2019-04-04T08:42:12.480Z,15.10
2019-04-04T08:47:14.011Z,15.77
2019-04-04T08:52:17.270Z,15.80
2019-04-04T08:57:19.018Z,14.97
2019-04-04T09:02:20.898Z,16.67
2019-04-04T09:07:22.455Z,15.07
2019-04-04T09:12:24.123Z,15.77
2019-04-04T09:17:25.666Z,14.80
2019-04-04T09:22:27.204Z,15.53
2019-04-04T09:27:28.762Z,15.57
2019-04-04T09:32:30.320Z,16.07
2019-04-04T09:37:31.861Z,16.43
2019-04-04T09:42:33.447Z,16.20
2019-04-04T09:47:35.027Z,16.57
2019-04-04T09:52:36.567Z,16.93
2019-04-04T09:57:38.109Z,17.80
2019-04-04T10:02:39.945Z,17.33
2019-04-04T10:07:41.660Z,17.10
2019-04-04T10:12:43.328Z,16.40
2019-04-04T10:17:44.953Z,16.87
2019-04-04T10:22:46.512Z,17.13
2019-04-04T10:27:48.072Z,18.27
2019-04-04T10:32:49.628Z,17.67
2019-04-04T10:37:51.159Z,18.33
2019-04-04T10:42:52.714Z,15.78
2019-04-04T10:47:54.255Z,16.35
2019-04-04T10:52:55.807Z,15.45
2019-04-04T10:57:57.440Z,15.30
2019-04-04T11:02:59.081Z,15.80
2019-04-04T11:08:00.629Z,16.45
2019-04-04T11:13:03.023Z,15.43
2019-04-04T11:18:04.738Z,15.25
2019-04-04T11:23:06.521Z,14.90
2019-04-04T11:28:08.170Z,12.10
2019-04-04T11:33:09.756Z,11.85
2019-04-04T11:38:11.319Z,12.70
2019-04-04T11:43:13.102Z,11.33
2019-04-04T11:48:14.677Z,10.88
2019-04-04T11:53:16.370Z,11.48
2019-04-04T11:58:18.163Z,9.83
2019-04-04T12:03:19.777Z,8.70
2019-04-04T12:08:21.463Z,8.35
2019-04-04T12:13:23.015Z,8.90
2019-04-04T12:18:24.616Z,9.10
2019-04-04T12:23:26.202Z,8.98
2019-04-04T12:28:27.764Z,9.33
2019-04-04T12:33:29.600Z,7.67
2019-04-04T12:38:31.179Z,10.00
2019-04-04T12:43:32.927Z,10.00
2019-04-04T12:48:34.566Z,9.00
2019-04-04T12:53:36.268Z,8.45
2019-04-04T12:58:37.915Z,7.60
2019-04-04T13:03:39.471Z,7.08
2019-04-04T13:08:41.070Z,5.80
2019-04-04T13:13:42.727Z,4.92
2019-04-04T13:18:44.441Z,4.83
2019-04-04T13:23:46.057Z,4.22
2019-04-04T13:28:47.646Z,3.85
2019-04-04T13:33:49.235Z,4.00
2019-04-04T13:38:50.885Z,3.37
2019-04-04T13:43:54.378Z,3.40
2019-04-04T13:48:56.064Z,3.52
2019-04-04T13:54:02.268Z,3.50
2019-04-04T13:59:05.949Z,3.62
2019-04-04T14:04:07.655Z,3.55
2019-04-04T14:09:12.084Z,3.55
2019-04-04T14:14:12.783Z,4.35
2019-04-04T14:19:14.517Z,4.08
2019-04-04T14:24:18.276Z,4.30
2019-04-04T14:29:27.229Z,4.53
2019-04-04T14:34:23.691Z,4.10
2019-04-04T14:39:28.740Z,4.10
2019-04-04T14:44:30.782Z,4.37
2019-04-04T14:49:32.388Z,4.87
2019-04-04T14:54:34.076Z,4.12
2019-04-04T14:59:35.818Z,3.92
2019-04-04T15:04:37.474Z,4.50
2019-04-04T15:09:39.279Z,4.40
2019-04-04T15:14:41.110Z,4.35
2019-04-04T15:19:42.767Z,4.45
2019-04-04T15:24:44.320Z,4.85
2019-04-04T15:29:45.853Z,5.50
2019-04-04T15:34:47.413Z,4.67
2019-04-04T15:39:48.986Z,5.05
2019-04-04T15:44:50.565Z,3.95
2019-04-04T15:49:52.373Z,3.92
2019-04-04T15:54:53.963Z,4.75
2019-04-04T15:59:55.640Z,3.92
2019-04-04T16:04:57.257Z,4.03
2019-04-04T16:09:59.011Z,4.00
2019-04-04T16:15:00.671Z,3.85
2019-04-04T16:20:02.464Z,3.90
2019-04-04T16:25:04.689Z,3.92
2019-04-04T16:30:08.002Z,4.20
2019-04-04T16:35:09.974Z,5.28
2019-04-04T16:40:11.853Z,6.72
2019-04-04T16:45:13.531Z,4.25
2019-04-04T16:50:15.072Z,4.40
2019-04-04T16:55:16.713Z,6.83
2019-04-04T17:00:20.831Z,5.30
2019-04-04T17:05:22.137Z,4.17
2019-04-04T17:10:23.872Z,5.15
2019-04-04T17:15:25.439Z,4.60
2019-04-04T17:20:26.980Z,5.17
2019-04-04T17:25:28.537Z,6.40
2019-04-04T17:30:30.133Z,5.22
2019-04-04T17:35:31.827Z,4.78
2019-04-04T17:40:33.548Z,4.65
2019-04-04T17:45:35.626Z,5.08
2019-04-04T17:50:37.897Z,5.05
2019-04-04T17:55:40.070Z,4.75
2019-04-04T18:00:41.969Z,5.03
2019-04-04T18:05:43.572Z,5.05
2019-04-04T18:10:45.205Z,6.28
2019-04-04T18:15:46.882Z,5.37
2019-04-04T18:20:48.576Z,5.15
2019-04-04T18:25:50.081Z,5.72
2019-04-04T18:30:51.629Z,6.25
2019-04-04T18:35:53.294Z,5.55
2019-04-04T18:40:54.832Z,5.42
2019-04-04T18:45:56.521Z,10.15
2019-04-04T18:50:58.225Z,8.65
2019-04-04T18:55:59.866Z,11.73
2019-04-04T19:01:01.648Z,14.40
2019-04-04T19:06:03.310Z,19.67
2019-04-04T19:11:04.991Z,24.50
2019-04-04T19:16:06.753Z,24.27
2019-04-04T19:21:08.397Z,25.40
2019-04-04T19:26:10.070Z,25.50
2019-04-04T19:31:11.721Z,24.60
2019-04-04T19:36:13.261Z,24.07
2019-04-04T19:41:14.815Z,24.43
2019-04-04T19:46:16.459Z,23.20
2019-04-04T19:51:17.999Z,22.73
2019-04-04T19:56:19.550Z,22.37
2019-04-04T20:01:21.192Z,23.63
2019-04-04T20:06:22.719Z,22.30
2019-04-04T20:11:24.263Z,20.70
2019-04-04T20:16:25.832Z,21.83
2019-04-04T20:21:27.387Z,23.07
2019-04-04T20:26:28.954Z,21.90
2019-04-04T20:31:30.668Z,23.27
2019-04-04T20:36:32.385Z,23.60
2019-04-04T20:41:34.090Z,22.53
2019-04-04T20:46:36.724Z,24.13
2019-04-04T20:51:38.306Z,23.07
2019-04-04T20:56:40.027Z,23.73
2019-04-04T21:01:41.742Z,23.23
2019-04-04T21:06:43.508Z,23.13
2019-04-04T21:11:45.102Z,24.57
2019-04-04T21:16:46.702Z,23.90
2019-04-04T21:21:48.429Z,23.83
2019-04-04T21:26:50.001Z,25.00
2019-04-04T21:31:51.654Z,25.30
2019-04-04T21:36:53.409Z,26.87
2019-04-04T21:41:55.014Z,25.23
2019-04-04T21:46:56.725Z,25.77
2019-04-04T21:51:58.692Z,26.70
2019-04-04T21:57:00.404Z,27.77
2019-04-04T22:02:02.608Z,29.00
2019-04-04T22:07:04.423Z,30.40
2019-04-04T22:12:05.965Z,30.27
2019-04-04T22:17:07.566Z,31.87
2019-04-04T22:22:09.227Z,32.00
2019-04-04T22:27:10.956Z,34.27
2019-04-04T22:32:12.488Z,33.77
2019-04-04T22:37:14.069Z,34.60
2019-04-04T22:42:15.718Z,34.90
2019-04-04T22:47:17.363Z,34.37
2019-04-04T22:58:03.528Z,32.47
2019-04-04T23:03:06.427Z,33.93
2019-04-04T23:08:08.001Z,33.40
2019-04-04T23:13:09.675Z,31.97
2019-04-04T23:18:11.240Z,33.20
2019-04-04T23:23:12.995Z,31.37
2019-04-04T23:28:14.561Z,32.60
2019-04-04T23:33:16.131Z,33.73
2019-04-04T23:38:17.828Z,36.00
2019-04-04T23:43:19.378Z,34.37
2019-04-04T23:48:20.964Z,35.27
2019-04-04T23:53:22.530Z,33.83
2019-04-04T23:58:24.099Z,34.40
